Time,TemperatureF,DewpointF,PressureIn,WindDirection,WindDirectionDegrees,WindSpeedMPH,WindSpeedGustMPH,Humidity,HourlyPrecipIn,Conditions,Clouds,dailyrainin,SoftwareType,DateUTC
2013-06-02 00:00:00,59.0,56.0,29.94,SSE,163,10.0,-999.0,90,-99.99,,,-99.99,,2013-06-02 04:00:00,
2013-06-02 00:23:00,59.0,56.0,29.94,SSE,163,10.0,-999.0,90,-99.99,,,-99.99,,2013-06-02 04:23:00,
2013-06-02 00:33:00,59.0,56.0,29.94,SSE,163,10.0,-999.0,90,-99.99,,,-99.99,,2013-06-02 04:33:00,
2013-06-02 00:42:00,59.0,56.0,29.94,SSE,163,10.0,-999.0,90,-99.99,,,-99.99,,2013-06-02 04:42:00,
2013-06-02 00:53:00,59.0,56.0,29.94,SSE,163,10.0,-999.0,90,-99.99,,,-99.99,,2013-06-02 04:53:00,
2013-06-02 01:00:00,62.0,58.0,29.94,South,190,5.0,12.0,89,-99.99,,,-99.99,,2013-06-02 05:00:00,
2013-06-02 01:32:00,62.0,58.0,29.94,South,190,5.0,12.0,89,-99.99,,,-99.99,,2013-06-02 05:32:00,
2013-06-02 01:42:00,62.0,58.0,29.94,South,190,5.0,12.0,89,-99.99,,,-99.99,,2013-06-02 05:42:00,
2013-06-02 01:52:00,62.0,58.0,29.94,South,190,5.0,12.0,89,-99.99,,,-99.99,,2013-06-02 05:52:00,
2013-06-02 02:00:00,60.0,58.0,29.91,South,170,7.0,15.0,93,-99.99,,,-99.99,,2013-06-02 06:00:00,
2013-06-02 02:22:00,60.0,58.0,29.91,South,170,7.0,15.0,93,-99.99,,,-99.99,,2013-06-02 06:22:00,
2013-06-02 02:32:00,60.0,58.0,29.91,South,170,7.0,15.0,93,-99.99,,,-99.99,,2013-06-02 06:32:00,
2013-06-02 02:42:00,60.0,58.0,29.91,South,170,7.0,15.0,93,-99.99,,,-99.99,,2013-06-02 06:42:00,
2013-06-02 02:52:00,60.0,58.0,29.91,South,170,7.0,15.0,93,-99.99,,,-99.99,,2013-06-02 06:52:00,
2013-06-02 03:00:00,66.0,63.0,29.91,SSW,209,8.0,14.0,92,-99.99,,,-99.99,,2013-06-02 07:00:00,
2013-06-02 03:22:00,66.0,63.0,29.91,SSW,209,8.0,14.0,92,-99.99,,,-99.99,,2013-06-02 07:22:00,
2013-06-02 03:32:00,66.0,63.0,29.91,SSW,209,8.0,14.0,92,-99.99,,,-99.99,,2013-06-02 07:32:00,
2013-06-02 03:42:00,66.0,63.0,29.91,SSW,209,8.0,14.0,92,-99.99,,,-99.99,,2013-06-02 07:42:00,
2013-06-02 03:52:00,66.0,63.0,29.91,SSW,209,8.0,14.0,92,-99.99,,,-99.99,,2013-06-02 07:52:00,
2013-06-02 04:00:00,72.0,67.0,29.91,SW,216,10.0,17.0,83,-99.99,,,-99.99,,2013-06-02 08:00:00,
2013-06-02 04:22:00,72.0,67.0,29.91,SW,216,10.0,17.0,83,-99.99,,,-99.99,,2013-06-02 08:22:00,
2013-06-02 04:32:00,72.0,67.0,29.91,SW,216,10.0,17.0,83,-99.99,,,-99.99,,2013-06-02 08:32:00,
2013-06-02 04:42:00,72.0,67.0,29.91,SW,216,10.0,17.0,83,-99.99,,,-99.99,,2013-06-02 08:42:00,
2013-06-02 04:52:00,72.0,67.0,29.91,SW,216,10.0,17.0,83,-99.99,,,-99.99,,2013-06-02 08:52:00,
2013-06-02 05:00:00,70.0,66.0,29.88,SW,223,6.0,-999.0,86,-99.99,,,-99.99,,2013-06-02 09:00:00,
2013-06-02 05:33:00,70.0,66.0,29.88,SW,223,6.0,-999.0,86,-99.99,,,-99.99,,2013-06-02 09:33:00,
2013-06-02 05:43:00,70.0,66.0,29.88,SW,223,6.0,-999.0,86,-99.99,,,-99.99,,2013-06-02 09:43:00,
2013-06-02 05:53:00,70.0,66.0,29.88,SW,223,6.0,-999.0,86,-99.99,,,-99.99,,2013-06-02 09:53:00,
2013-06-02 06:00:00,72.0,67.0,29.88,SW,224,8.0,19.0,83,-99.99,,,-99.99,,2013-06-02 10:00:00,
2013-06-02 06:33:00,72.0,67.0,29.88,SW,224,8.0,19.0,83,-99.99,,,-99.99,,2013-06-02 10:33:00,
2013-06-02 06:42:00,72.0,67.0,29.88,SW,224,8.0,19.0,83,-99.99,,,-99.99,,2013-06-02 10:42:00,
2013-06-02 06:52:00,72.0,67.0,29.88,SW,224,8.0,19.0,83,-99.99,,,-99.99,,2013-06-02 10:52:00,
2013-06-02 07:00:00,60.0,57.0,29.88,SSE,166,8.0,15.0,90,-99.99,,,-99.99,,2013-06-02 11:00:00,
2013-06-02 07:32:00,60.0,57.0,29.88,SSE,166,8.0,15.0,90,-99.99,,,-99.99,,2013-06-02 11:32:00,
2013-06-02 07:42:00,60.0,57.0,29.88,SSE,166,8.0,15.0,90,-99.99,,,-99.99,,2013-06-02 11:42:00,
2013-06-02 07:52:00,60.0,57.0,29.88,SSE,166,8.0,15.0,90,-99.99,,,-99.99,,2013-06-02 11:52:00,
2013-06-02 08:00:00,76.0,67.0,29.88,SSW,202,13.0,19.0,72,-99.99,,,-99.99,,2013-06-02 12:00:00,
2013-06-02 08:32:00,76.0,67.0,29.88,SSW,202,13.0,19.0,72,-99.99,,,-99.99,,2013-06-02 12:32:00,
2013-06-02 08:42:00,76.0,67.0,29.88,SSW,202,13.0,19.0,72,-99.99,,,-99.99,,2013-06-02 12:42:00,
2013-06-02 08:53:00,76.0,67.0,29.88,SSW,202,13.0,19.0,72,-99.99,,,-99.99,,2013-06-02 12:53:00,
2013-06-02 09:00:00,64.0,58.0,29.88,SSE,161,11.0,18.0,82,-99.99,,,-99.99,,2013-06-02 13:00:00,
2013-06-02 09:22:00,64.0,58.0,29.88,SSE,161,11.0,18.0,82,-99.99,,,-99.99,,2013-06-02 13:22:00,
2013-06-02 09:32:00,64.0,58.0,29.88,SSE,161,11.0,18.0,82,-99.99,,,-99.99,,2013-06-02 13:32:00,
2013-06-02 09:42:00,64.0,58.0,29.88,SSE,161,11.0,18.0,82,-99.99,,,-99.99,,2013-06-02 13:42:00,
2013-06-02 09:52:00,64.0,58.0,29.88,SSE,161,11.0,18.0,82,-99.99,,,-99.99,,2013-06-02 13:52:00,
2013-06-02 10:00:00,64.0,59.0,29.85,SSE,161,12.0,20.0,84,-99.99,,,-99.99,,2013-06-02 14:00:00,
2013-06-02 10:22:00,64.0,59.0,29.85,SSE,161,12.0,20.0,84,-99.99,,,-99.99,,2013-06-02 14:22:00,
2013-06-02 10:32:00,64.0,59.0,29.85,SSE,161,12.0,20.0,84,-99.99,,,-99.99,,2013-06-02 14:32:00,
2013-06-02 10:42:00,64.0,59.0,29.85,SSE,161,12.0,20.0,84,-99.99,,,-99.99,,2013-06-02 14:42:00,
2013-06-02 10:52:00,64.0,59.0,29.85,SSE,161,12.0,20.0,84,-99.99,,,-99.99,,2013-06-02 14:52:00,
2013-06-02 11:00:00,67.0,59.0,29.85,South,170,14.0,25.0,76,-99.99,,,-99.99,,2013-06-02 15:00:00,
2013-06-02 11:33:00,67.0,59.0,29.85,South,170,14.0,25.0,76,-99.99,,,-99.99,,2013-06-02 15:33:00,
2013-06-02 11:43:00,67.0,59.0,29.85,South,170,14.0,25.0,76,-99.99,,,-99.99,,2013-06-02 15:43:00,
2013-06-02 11:53:00,67.0,59.0,29.85,South,170,14.0,25.0,76,-99.99,,,-99.99,,2013-06-02 15:53:00,
2013-06-02 12:00:00,65.0,58.0,29.85,South,170,17.0,24.0,78,-99.99,,,-99.99,,2013-06-02 16:00:00,
2013-06-02 12:33:00,65.0,58.0,29.85,South,170,17.0,24.0,78,-99.99,,,-99.99,,2013-06-02 16:33:00,
2013-06-02 12:42:00,65.0,58.0,29.85,South,170,17.0,24.0,78,-99.99,,,-99.99,,2013-06-02 16:42:00,
2013-06-02 12:53:00,65.0,58.0,29.85,South,170,17.0,24.0,78,-99.99,,,-99.99,,2013-06-02 16:53:00,
2013-06-02 13:00:00,65.0,58.0,29.85,SSE,159,14.0,24.0,79,-99.99,,,-99.99,,2013-06-02 17:00:00,
2013-06-02 13:23:00,65.0,58.0,29.85,SSE,159,14.0,24.0,79,-99.99,,,-99.99,,2013-06-02 17:23:00,
2013-06-02 13:33:00,65.0,58.0,29.85,SSE,159,14.0,24.0,79,-99.99,,,-99.99,,2013-06-02 17:33:00,
2013-06-02 13:42:00,65.0,58.0,29.85,SSE,159,14.0,24.0,79,-99.99,,,-99.99,,2013-06-02 17:42:00,
2013-06-02 13:52:00,65.0,58.0,29.85,SSE,159,14.0,24.0,79,-99.99,,,-99.99,,2013-06-02 17:52:00,
2013-06-02 14:00:00,64.0,58.0,29.83,SSE,153,16.0,23.0,80,-99.99,,,-99.99,,2013-06-02 18:00:00,
2013-06-02 14:22:00,64.0,58.0,29.83,SSE,153,16.0,23.0,80,-99.99,,,-99.99,,2013-06-02 18:22:00,
2013-06-02 14:32:00,64.0,58.0,29.83,SSE,153,16.0,23.0,80,-99.99,,,-99.99,,2013-06-02 18:32:00,
2013-06-02 14:42:00,64.0,58.0,29.83,SSE,153,16.0,23.0,80,-99.99,,,-99.99,,2013-06-02 18:42:00,
2013-06-02 14:52:00,64.0,58.0,29.83,SSE,153,16.0,23.0,80,-99.99,,,-99.99,,2013-06-02 18:52:00,
2013-06-02 15:00:00,67.0,60.0,29.83,South,172,8.0,25.0,76,-99.99,,,-99.99,,2013-06-02 19:00:00,
2013-06-02 15:32:00,67.0,60.0,29.83,South,172,8.0,25.0,76,-99.99,,,-99.99,,2013-06-02 19:32:00,
2013-06-02 15:42:00,67.0,60.0,29.83,South,172,8.0,25.0,76,-99.99,,,-99.99,,2013-06-02 19:42:00,
2013-06-02 15:52:00,67.0,60.0,29.83,South,172,8.0,25.0,76,-99.99,,,-99.99,,2013-06-02 19:52:00,
2013-06-02 16:00:00,65.0,58.0,29.83,SSE,167,13.0,24.0,79,-99.99,,,-99.99,,2013-06-02 20:00:00,
2013-06-02 16:32:00,65.0,58.0,29.83,SSE,167,13.0,24.0,79,-99.99,,,-99.99,,2013-06-02 20:32:00,
2013-06-02 16:42:00,65.0,58.0,29.83,SSE,167,13.0,24.0,79,-99.99,,,-99.99,,2013-06-02 20:42:00,
2013-06-02 16:52:00,65.0,58.0,29.83,SSE,167,13.0,24.0,79,-99.99,,,-99.99,,2013-06-02 20:52:00,
2013-06-02 17:00:00,77.0,68.0,29.83,SSW,202,10.0,24.0,74,-99.99,,,-99.99,,2013-06-02 21:00:00,
2013-06-02 17:22:00,77.0,68.0,29.83,SSW,202,10.0,24.0,74,-99.99,,,-99.99,,2013-06-02 21:22:00,
2013-06-02 17:33:00,77.0,68.0,29.83,SSW,202,10.0,24.0,74,-99.99,,,-99.99,,2013-06-02 21:33:00,
2013-06-02 17:43:00,77.0,68.0,29.83,SSW,202,10.0,24.0,74,-99.99,,,-99.99,,2013-06-02 21:43:00,
2013-06-02 17:53:00,77.0,68.0,29.83,SSW,202,10.0,24.0,74,-99.99,,,-99.99,,2013-06-02 21:53:00,
2013-06-02 18:00:00,66.0,65.0,29.83,South,189,9.0,23.0,96,-99.99,,,-99.99,,2013-06-02 22:00:00,
2013-06-02 18:23:00,66.0,65.0,29.83,South,189,9.0,23.0,96,-99.99,,,-99.99,,2013-06-02 22:23:00,
2013-06-02 18:33:00,66.0,65.0,29.83,South,189,9.0,23.0,96,-99.99,,,-99.99,,2013-06-02 22:33:00,
2013-06-02 18:42:00,66.0,65.0,29.83,South,189,9.0,23.0,96,-99.99,,,-99.99,,2013-06-02 22:42:00,
2013-06-02 18:53:00,66.0,65.0,29.83,South,189,9.0,23.0,96,-99.99,,,-99.99,,2013-06-02 22:53:00,
2013-06-02 19:00:00,60.0,58.0,29.83,South,179,11.0,-999.0,92,-99.99,,,-99.99,,2013-06-02 23:00:00,
2013-06-02 19:22:00,60.0,58.0,29.83,South,179,11.0,-999.0,92,-99.99,,,-99.99,,2013-06-02 23:22:00,
2013-06-02 19:32:00,60.0,58.0,29.83,South,179,11.0,-999.0,92,-99.99,,,-99.99,,2013-06-02 23:32:00,
2013-06-02 19:43:00,60.0,58.0,29.83,South,179,11.0,-999.0,92,-99.99,,,-99.99,,2013-06-02 23:43:00,
2013-06-02 19:53:00,60.0,58.0,29.83,South,179,11.0,-999.0,92,-99.99,,,-99.99,,2013-06-02 23:53:00,
2013-06-02 20:00:00,65.0,62.0,29.83,SSE,162,6.0,15.0,91,-99.99,,,-99.99,,2013-06-03 00:00:00,
2013-06-02 20:22:00,65.0,62.0,29.83,SSE,162,6.0,15.0,91,-99.99,,,-99.99,,2013-06-03 00:22:00,
2013-06-02 20:32:00,65.0,62.0,29.83,SSE,162,6.0,15.0,91,-99.99,,,-99.99,,2013-06-03 00:32:00,
2013-06-02 20:42:00,65.0,62.0,29.83,SSE,162,6.0,15.0,91,-99.99,,,-99.99,,2013-06-03 00:42:00,
2013-06-02 20:52:00,65.0,62.0,29.83,SSE,162,6.0,15.0,91,-99.99,,,-99.99,,2013-06-03 00:52:00,
2013-06-02 21:00:00,72.0,70.0,29.83,South,171,7.0,17.0,93,-99.99,,,-99.99,,2013-06-03 01:00:00,
2013-06-02 21:21:00,72.0,70.0,29.83,South,171,7.0,17.0,93,-99.99,,,-99.99,,2013-06-03 01:21:00,
2013-06-02 21:32:00,72.0,70.0,29.83,South,171,7.0,17.0,93,-99.99,,,-99.99,,2013-06-03 01:32:00,
2013-06-02 21:42:00,72.0,70.0,29.83,South,171,7.0,17.0,93,-99.99,,,-99.99,,2013-06-03 01:42:00,
2013-06-02 21:52:00,72.0,70.0,29.83,South,171,7.0,17.0,93,-99.99,,,-99.99,,2013-06-03 01:52:00,
2013-06-02 22:00:00,60.0,58.0,29.85,South,187,6.0,15.0,94,-99.99,,,-99.99,,2013-06-03 02:00:00,
2013-06-02 22:22:00,60.0,58.0,29.85,South,187,6.0,15.0,94,-99.99,,,-99.99,,2013-06-03 02:22:00,
2013-06-02 22:32:00,60.0,58.0,29.85,South,187,6.0,15.0,94,-99.99,,,-99.99,,2013-06-03 02:32:00,
2013-06-02 22:42:00,60.0,58.0,29.85,South,187,6.0,15.0,94,-99.99,,,-99.99,,2013-06-03 02:42:00,
2013-06-02 22:52:00,60.0,58.0,29.85,South,187,6.0,15.0,94,-99.99,,,-99.99,,2013-06-03 02:52:00,
2013-06-02 23:00:00,73.0,67.0,29.83,West,275,8.0,23.0,82,-99.99,,,-99.99,,2013-06-03 03:00:00,
2013-06-02 23:22:00,73.0,67.0,29.83,West,275,8.0,23.0,82,-99.99,,,-99.99,,2013-06-03 03:22:00,
2013-06-02 23:33:00,73.0,67.0,29.83,West,275,8.0,23.0,82,-99.99,,,-99.99,,2013-06-03 03:33:00,
2013-06-02 23:43:00,73.0,67.0,29.83,West,275,8.0,23.0,82,-99.99,,,-99.99,,2013-06-03 03:43:00,
2013-06-02 23:53:00,73.0,67.0,29.83,West,275,8.0,23.0,82,-99.99,,,-99.99,,2013-06-03 03:53:00,